Hauptseite
METAR-TAF:

METAR-TAF

Flughäfen :

London Southend Airport

London-Southend, England

Breite: 51-34N, Länge: 000-42E, Höhe: 15 m

Beobachtung

Neuester Wetterbericht von vor 24 Minuten, um 00:50 UTC
Wind 2 kt aus Nord/Nordwest
Temperatur 8°C
Luftfeuchtigkeit 87%
Luftdruck 1000 hPa
Sichtweite: 8000 m

METAR: EGMC 230050Z 34002KT 8000 NSC 08/06 Q1000

Zeit: 02:14 (01:14 UTC)

Prognose

Neuester Wetterbericht von vor 2 Stunden und 18 Minuten, um 22:56 UTC
Gültige Prognose vom 23 um 00 UTC bis 23 um 09 UTC
Wind 3 kt aus Nordost
Sichtweite: 7000 m
Wahrscheinlichkeit 30%
vom 23 um 00 UTC bis 23 um 06 UTC
Sichtweite: 4000 m
trockener Dunst
Wahrscheinlichkeit 40%
vom 23 um 06 UTC bis 23 um 09 UTC
Sichtweite 10 km oder mehr
keine Wolken unter 1500 m und keine Kumulonimbus oder Gewitterwolken

TAF: EGMC 222256Z 2300/2309 04003KT 7000 NSC PROB30 2300/2306 4000 HZ PROB40 2306/2309 CAVOK

Wetterbeobachtungen und Prognosen von mehr als 4000 Flughäfen (METAR und TAF Bericht).

Die verfügbaren Stationen werden durch gelbe und rote Markierungen auf der Karte dargestellt.

Führen Sie die Maus auf sie, um den Namen der Station zu sehen.

Darauf klicken, um die Beobachtung von Wetterbeobachtungen und Prognosen zu sehen.

Um die Karte zu ändern : klicken Sie auf den grünen Tasten mit einem schwarzen Kreuz Zum Vergrößern, auf den grünen Button mit einem Gedankenstrich zu verkleinern, oder auf die grünen Pfeile für benachbarte Karten.


METAR-TAF: